Terminal Aerodrome Forecast
Issued by NWS Cleveland, OH

Home | Current Version | Previous Version | Text Only | Print | Product List | Glossary On
Versions: 1 2 3 4 5 6 7 8 9 10 11 12 13 14 15 16 17 18 19 20 21
000
FTUS41 KCLE 221700
TAFERI
TAF
KERI 221730Z 2218/2318 30006KT P6SM FEW050
     FM230000 19008KT P6SM SCT250
     FM231100 23010KT P6SM VCSH BKN050 OVC100
     FM231300 28009KT P6SM VCSH OVC025
     FM231700 30010KT P6SM BKN035=

USA.gov is the U.S. government's official web portal to all federal, state and local government web resources and services.